Athens, New York
Current Conditions -  °F | °C
As of 12:54 AM on Thursday 27 Nov 2014 (Local Time) from KPSF Reporting Station
Light Snow Light Snow  
Wind Chill: -7°   Ceiling: 1800
Heat Index: -3°   Visibility: 4mi
Dew Point: -4°   Wind: 7mph
Humidity: 89%   Direction: 290°WNW
Pressure: 29.78"   Gusts: NA
Location:  42.26°N, 73.81°W
Report Text: KPSF 270554Z AUTO 29006KT 4SM -SN BR BKN018 OVC033 M03/M04 A2978 RMK AO2 SNE28B46 SLP097 P0001 60013 T10281044 11006 21028 53001
Loading
Personal Weather Stations






























Interactive Weather Map New forecast layout! Learn more

10-Day Weather Forecast

Advertisements
Track Severe Weather on mobile